createdAt,value
2022-11-18T00:01:22.568Z,94661.22
2022-11-18T00:03:51.392Z,94673.84
2022-11-18T00:06:22.519Z,94657.66
2022-11-18T00:08:51.258Z,94661.72
2022-11-18T00:11:35.212Z,94654.88
2022-11-18T00:14:23.835Z,94645.47
2022-11-18T00:16:55.143Z,94645.59
2022-11-18T00:19:25.080Z,94647.25
2022-11-18T00:21:55.231Z,94642.94
2022-11-18T00:24:23.804Z,94649.06
2022-11-18T00:26:52.238Z,94642.69
2022-11-18T00:29:21.212Z,94634.81
2022-11-18T00:31:49.914Z,94644.41
2022-11-18T00:34:19.222Z,94640.47
2022-11-18T00:36:48.164Z,94638.41
2022-11-18T00:39:19.938Z,94641.84
2022-11-18T00:42:06.132Z,94634.50
2022-11-18T00:44:34.709Z,94637.50
2022-11-18T00:47:03.108Z,94624.75
2022-11-18T00:49:31.909Z,94629.69
2022-11-18T00:52:01.184Z,94625.84
2022-11-18T00:54:31.182Z,94624.22
2022-11-18T00:56:59.620Z,94619.28
2022-11-18T00:59:28.038Z,94611.69
2022-11-18T01:01:56.458Z,94613.44
2022-11-18T01:04:24.891Z,94612.84
2022-11-18T01:06:53.380Z,94615.38
2022-11-18T01:09:21.778Z,94609.03
2022-11-18T01:12:09.133Z,94611.69
2022-11-18T01:14:37.520Z,94610.09
2022-11-18T01:17:05.963Z,94616.91
2022-11-18T01:19:34.365Z,94604.00
2022-11-18T01:22:03.450Z,94609.69
2022-11-18T01:24:32.615Z,94609.69
2022-11-18T01:27:02.860Z,94607.84
2022-11-18T01:29:31.275Z,94620.09
2022-11-18T01:32:23.369Z,94609.09
2022-11-18T01:34:47.866Z,94605.50
2022-11-18T01:37:16.193Z,94603.91
2022-11-18T01:39:44.594Z,94605.06
2022-11-18T01:42:16.986Z,94599.22
2022-11-18T01:45:05.392Z,94579.34
2022-11-18T01:47:37.189Z,94585.06
2022-11-18T01:50:06.954Z,94584.50
2022-11-18T01:52:36.218Z,94573.34
2022-11-18T01:55:08.801Z,94576.13
2022-11-18T01:57:38.824Z,94576.34
2022-11-18T02:00:08.963Z,94581.47
2022-11-18T02:02:38.796Z,94576.47
2022-11-18T02:05:09.692Z,94590.03
2022-11-18T02:07:40.285Z,94582.81
2022-11-18T02:10:09.731Z,94592.22
2022-11-18T02:12:39.523Z,94585.28
2022-11-18T02:15:09.265Z,94593.16
2022-11-18T02:17:45.899Z,94584.94
2022-11-18T02:20:24.252Z,94595.50
2022-11-18T02:23:23.760Z,94587.75
2022-11-18T02:26:17.638Z,94590.19
2022-11-18T02:28:58.538Z,94595.75
2022-11-18T02:31:30.971Z,94589.94
2022-11-18T02:34:02.697Z,94600.41
2022-11-18T02:36:38.888Z,94602.00
2022-11-18T02:39:09.959Z,94598.28
2022-11-18T02:41:40.893Z,94599.47
2022-11-18T02:44:13.623Z,94594.84
2022-11-18T02:46:42.258Z,94600.88
2022-11-18T02:49:15.387Z,94593.28
2022-11-18T02:51:44.611Z,94594.56
2022-11-18T02:54:13.477Z,94598.81
2022-11-18T02:56:42.566Z,94595.75
2022-11-18T02:59:12.402Z,94594.81
2022-11-18T03:01:41.397Z,94592.41
2022-11-18T03:04:09.803Z,94598.34
2022-11-18T03:06:39.625Z,94595.66
2022-11-18T03:09:12.439Z,94597.19
2022-11-18T03:11:47.880Z,94598.78
2022-11-18T03:14:24.785Z,94594.84
2022-11-18T03:16:59.833Z,94590.69
2022-11-18T03:19:36.105Z,94591.13
2022-11-18T03:22:11.686Z,94587.44
2022-11-18T03:24:42.305Z,94594.13
2022-11-18T03:27:13.976Z,94596.09
2022-11-18T03:29:46.695Z,94599.47
2022-11-18T03:32:18.780Z,94601.25
2022-11-18T03:34:49.702Z,94587.75
2022-11-18T03:37:20.251Z,94589.16
2022-11-18T03:39:50.211Z,94583.59
2022-11-18T03:42:25.169Z,94594.94
2022-11-18T03:44:57.130Z,94597.16
2022-11-18T03:47:28.601Z,94608.78
2022-11-18T03:50:01.589Z,94607.47
2022-11-18T03:52:32.748Z,94601.72
2022-11-18T03:55:05.983Z,94596.94
2022-11-18T03:57:39.212Z,94607.22
2022-11-18T04:00:10.908Z,94614.19
2022-11-18T04:02:39.383Z,94612.94
2022-11-18T04:05:10.497Z,94620.81
2022-11-18T04:07:41.645Z,94623.69
2022-11-18T04:10:14.007Z,94627.78
2022-11-18T04:12:45.815Z,94628.34
2022-11-18T04:15:15.666Z,94633.66
2022-11-18T04:17:44.487Z,94636.13
2022-11-18T04:20:17.052Z,94625.22
2022-11-18T04:22:45.518Z,94639.25
2022-11-18T04:25:14.648Z,94632.63
2022-11-18T04:27:42.989Z,94637.72
2022-11-18T04:30:12.431Z,94640.41
2022-11-18T04:32:42.247Z,94634.94
2022-11-18T04:35:10.681Z,94645.72
2022-11-18T04:37:39.247Z,94639.09
2022-11-18T04:40:08.900Z,94636.16
2022-11-18T04:42:37.375Z,94633.91
2022-11-18T04:45:06.913Z,94628.00
2022-11-18T04:47:35.526Z,94631.03
2022-11-18T04:50:06.248Z,94632.97
2022-11-18T04:52:34.621Z,94637.03
2022-11-18T04:55:03.174Z,94631.13
2022-11-18T04:57:31.601Z,94628.44
2022-11-18T05:00:00.057Z,94626.72
2022-11-18T05:02:28.461Z,94624.44
2022-11-18T05:04:56.795Z,94619.66
2022-11-18T05:07:26.578Z,94621.16
2022-11-18T05:09:55.295Z,94619.91
2022-11-18T05:12:41.298Z,94613.84
2022-11-18T05:15:10.287Z,94619.16
2022-11-18T05:17:38.704Z,94620.34
2022-11-18T05:20:08.216Z,94612.47
2022-11-18T05:22:37.954Z,94616.28
2022-11-18T05:25:07.226Z,94622.34
2022-11-18T05:27:35.787Z,94623.16
2022-11-18T05:30:04.424Z,94618.84
2022-11-18T05:32:32.948Z,94615.13
2022-11-18T05:35:01.322Z,94614.44
2022-11-18T05:37:29.667Z,94619.31
2022-11-18T05:39:59.300Z,94612.59
2022-11-18T05:42:45.103Z,94620.22
2022-11-18T05:45:13.532Z,94618.72
2022-11-18T05:47:55.783Z,94612.94
2022-11-18T05:50:24.154Z,94621.16
2022-11-18T05:52:52.545Z,94621.41
2022-11-18T05:55:23.976Z,94629.75
2022-11-18T05:57:52.332Z,94629.38
2022-11-18T06:00:20.957Z,94626.41
2022-11-18T06:02:50.997Z,94628.91
2022-11-18T06:05:20.139Z,94635.66
2022-11-18T06:07:48.552Z,94626.22
2022-11-18T06:10:19.890Z,94623.34
2022-11-18T06:12:52.413Z,94632.28
2022-11-18T06:15:23.046Z,94632.41
2022-11-18T06:17:51.814Z,94629.59
2022-11-18T06:20:20.586Z,94640.94
2022-11-18T06:22:49.430Z,94638.03
2022-11-18T06:25:18.388Z,94634.59
2022-11-18T06:27:47.546Z,94640.22
2022-11-18T06:30:17.578Z,94638.56
2022-11-18T06:32:45.925Z,94640.56
2022-11-18T06:35:14.322Z,94631.03
2022-11-18T06:37:42.719Z,94647.84
2022-11-18T06:40:12.622Z,94663.31
2022-11-18T06:42:58.573Z,94662.97
2022-11-18T06:45:28.385Z,94659.91
2022-11-18T06:47:57.342Z,94673.38
2022-11-18T06:50:25.867Z,94661.25
2022-11-18T06:52:54.387Z,94675.88
2022-11-18T06:55:22.703Z,94678.38
2022-11-18T06:57:51.162Z,94682.28
2022-11-18T07:00:20.100Z,94679.72
2022-11-18T07:02:49.914Z,94695.94
2022-11-18T07:05:18.356Z,94692.34
2022-11-18T07:07:46.793Z,94692.34
2022-11-18T07:10:15.723Z,94709.94
2022-11-18T07:12:44.039Z,94713.47
2022-11-18T07:15:12.562Z,94707.31
2022-11-18T07:17:40.870Z,94720.91
2022-11-18T07:20:11.842Z,94711.84
2022-11-18T07:22:40.127Z,94717.13
2022-11-18T07:25:08.904Z,94724.75
2022-11-18T07:27:37.279Z,94729.59
2022-11-18T07:30:06.440Z,94729.84
2022-11-18T07:35:21.683Z,94735.47
2022-11-18T07:37:49.992Z,94733.91
2022-11-18T07:40:18.866Z,94739.66
2022-11-18T07:42:47.204Z,94744.84
2022-11-18T07:45:15.548Z,94750.59
2022-11-18T07:47:43.917Z,94746.75
2022-11-18T07:50:12.282Z,94757.72
2022-11-18T07:52:41.940Z,94766.28
2022-11-18T07:55:10.733Z,94761.72
2022-11-18T07:57:39.049Z,94761.53
2022-11-18T08:00:08.982Z,94776.47
2022-11-18T08:02:37.323Z,94782.34
2022-11-18T08:05:06.358Z,94772.38
2022-11-18T08:07:34.834Z,94780.47
2022-11-18T08:10:05.031Z,94784.31
2022-11-18T08:12:33.420Z,94785.69
2022-11-18T08:15:01.691Z,94785.91
2022-11-18T08:17:30.064Z,94793.94
2022-11-18T08:19:58.472Z,94795.16
2022-11-18T08:22:26.754Z,94802.56
2022-11-18T08:24:55.152Z,94808.75
2022-11-18T08:27:24.944Z,94804.34
2022-11-18T08:29:53.239Z,94807.88
2022-11-18T08:32:21.625Z,94803.13
2022-11-18T08:34:50.051Z,94814.47
2022-11-18T08:37:18.572Z,94820.91
2022-11-18T08:39:46.875Z,94816.72
2022-11-18T08:42:15.268Z,94826.03
2022-11-18T08:44:44.901Z,94830.63
2022-11-18T08:47:13.247Z,94828.94
2022-11-18T08:49:41.675Z,94832.03
2022-11-18T08:52:10.663Z,94835.09
2022-11-18T08:54:39.063Z,94838.13
2022-11-18T08:57:07.387Z,94834.66
2022-11-18T08:59:35.706Z,94840.16
2022-11-18T09:02:05.479Z,94834.78
2022-11-18T09:04:33.847Z,94844.19
2022-11-18T09:07:03.082Z,94844.63
2022-11-18T09:09:31.513Z,94836.78
2022-11-18T09:11:59.950Z,94851.41
2022-11-18T09:17:18.135Z,94858.06
2022-11-18T09:19:47.937Z,94854.25
2022-11-18T09:22:16.975Z,94847.06
2022-11-18T09:24:45.379Z,94861.19
2022-11-18T09:27:17.064Z,94859.16
2022-11-18T09:29:46.473Z,94864.13
2022-11-18T09:32:14.936Z,94862.38
2022-11-18T09:34:44.734Z,94854.63
2022-11-18T09:37:13.225Z,94844.72
2022-11-18T09:39:41.628Z,94864.16
2022-11-18T09:42:31.256Z,94859.25
2022-11-18T09:45:24.297Z,94873.66
2022-11-18T09:47:53.124Z,94865.91
2022-11-18T09:53:20.152Z,94877.66
2022-11-18T09:55:49.317Z,94866.25
2022-11-18T09:58:20.074Z,94868.91
2022-11-18T10:00:48.392Z,94866.50
2022-11-18T10:03:23.107Z,94877.13
2022-11-18T10:05:55.749Z,94878.19
2022-11-18T10:08:27.021Z,94871.34
2022-11-18T10:11:04.690Z,94870.72
2022-11-18T10:13:43.722Z,94878.22
2022-11-18T10:16:21.425Z,94880.25
2022-11-18T10:19:02.566Z,94881.34
2022-11-18T10:21:42.123Z,94879.44
2022-11-18T10:24:14.496Z,94878.06
2022-11-18T10:26:43.216Z,94874.94
2022-11-18T10:29:11.632Z,94878.16
2022-11-18T10:31:40.732Z,94883.06
2022-11-18T10:34:12.184Z,94867.28
2022-11-18T10:36:42.049Z,94897.88
2022-11-18T10:39:13.147Z,94882.16
2022-11-18T10:41:46.317Z,94892.38
2022-11-18T10:44:30.121Z,94896.31
2022-11-18T10:47:17.426Z,94880.16
2022-11-18T10:49:45.704Z,94884.06
2022-11-18T10:52:15.894Z,94889.53
2022-11-18T10:54:44.386Z,94892.69
2022-11-18T10:57:18.921Z,94883.13
2022-11-18T10:59:51.052Z,94894.19
2022-11-18T11:02:20.700Z,94902.09
2022-11-18T11:04:51.177Z,94897.88
2022-11-18T11:07:27.551Z,94909.84
2022-11-18T11:10:04.062Z,94898.34
2022-11-18T11:12:33.687Z,94899.38
2022-11-18T11:15:05.731Z,94892.41
2022-11-18T11:17:36.850Z,94894.25
2022-11-18T11:20:08.162Z,94891.19
2022-11-18T11:22:37.857Z,94896.97
2022-11-18T11:25:12.433Z,94892.03
2022-11-18T11:30:39.669Z,94896.50
2022-11-18T11:33:24.395Z,94903.50
2022-11-18T11:36:01.495Z,94911.19
2022-11-18T11:38:38.898Z,94899.66
2022-11-18T11:41:13.264Z,94904.47
2022-11-18T11:43:54.860Z,94901.53
2022-11-18T11:46:29.601Z,94898.53
2022-11-18T11:49:03.559Z,94918.38
2022-11-18T11:51:36.111Z,94905.03
2022-11-18T11:54:17.373Z,94914.50
2022-11-18T11:56:49.668Z,94912.16
2022-11-18T11:59:23.280Z,94911.31
2022-11-18T12:02:00.229Z,94907.84
2022-11-18T12:04:36.288Z,94914.94
2022-11-18T12:07:05.900Z,94912.13
2022-11-18T12:09:47.450Z,94912.97
2022-11-18T12:12:38.957Z,94918.13
2022-11-18T12:15:16.408Z,94923.47
2022-11-18T12:17:48.892Z,94924.19
2022-11-18T12:20:39.861Z,94937.47
2022-11-18T12:23:16.731Z,94923.16
2022-11-18T12:26:08.883Z,94942.06
2022-11-18T12:28:41.140Z,94934.78
2022-11-18T12:31:29.346Z,94937.75
2022-11-18T12:33:58.947Z,94941.31
2022-11-18T12:36:30.511Z,94937.34
2022-11-18T12:38:58.917Z,94943.69
2022-11-18T12:42:14.279Z,94944.66
2022-11-18T12:44:43.821Z,94946.13
2022-11-18T12:47:12.652Z,94954.00
2022-11-18T12:50:12.363Z,94952.59
2022-11-18T12:52:53.997Z,94966.09
2022-11-18T12:55:32.030Z,94964.50
2022-11-18T12:58:01.995Z,94955.84
2022-11-18T13:00:33.145Z,94975.91
2022-11-18T13:03:02.745Z,94972.59
2022-11-18T13:05:32.309Z,94981.78
2022-11-18T13:08:17.117Z,94981.81
2022-11-18T13:10:54.739Z,94982.63
2022-11-18T13:13:27.862Z,94980.41
2022-11-18T13:16:14.613Z,94984.28
2022-11-18T13:18:50.512Z,94981.44
2022-11-18T13:21:42.096Z,94989.34
2022-11-18T13:24:13.820Z,94972.66
2022-11-18T13:26:43.877Z,94968.56
2022-11-18T13:29:23.370Z,94994.47
2022-11-18T13:32:00.100Z,94986.13
2022-11-18T13:34:30.339Z,94999.19
2022-11-18T13:37:01.204Z,94993.88
2022-11-18T13:39:31.275Z,94989.59
2022-11-18T13:42:01.946Z,94988.91
2022-11-18T13:44:32.088Z,94995.06
2022-11-18T13:47:05.861Z,95008.13
2022-11-18T13:49:47.398Z,94997.47
2022-11-18T13:52:20.871Z,95011.81
2022-11-18T13:54:51.008Z,95002.78
2022-11-18T13:57:21.149Z,95000.63
2022-11-18T13:59:51.616Z,95005.13
2022-11-18T14:02:19.966Z,95001.69
2022-11-18T14:04:54.775Z,94997.31
2022-11-18T14:07:26.716Z,94994.16
2022-11-18T14:09:56.476Z,94991.44
2022-11-18T14:12:28.706Z,94999.69
2022-11-18T14:15:22.134Z,94999.19
2022-11-18T14:17:56.120Z,94998.22
2022-11-18T14:20:24.933Z,95003.66
2022-11-18T14:22:56.322Z,94999.53
2022-11-18T14:25:28.588Z,94999.91
2022-11-18T14:27:57.577Z,95008.97
2022-11-18T14:30:33.466Z,95005.66
2022-11-18T14:33:15.837Z,95010.53
2022-11-18T14:35:45.868Z,95006.31
2022-11-18T14:38:35.445Z,95010.16
2022-11-18T14:41:05.637Z,95011.53
2022-11-18T14:43:34.097Z,95008.72
2022-11-18T14:46:06.088Z,95011.13
2022-11-18T14:48:34.536Z,95020.19
2022-11-18T14:51:02.942Z,95021.34
2022-11-18T14:53:31.397Z,95034.34
2022-11-18T14:56:00.261Z,95024.28
2022-11-18T14:58:28.553Z,95032.22
2022-11-18T15:00:56.944Z,95030.31
2022-11-18T15:03:26.639Z,95035.38
2022-11-18T15:05:55.026Z,95032.34
2022-11-18T15:08:23.379Z,95036.06
2022-11-18T15:10:51.752Z,95028.72
2022-11-18T15:13:20.052Z,95037.69
2022-11-18T15:15:48.378Z,95045.09
2022-11-18T15:18:16.699Z,95042.44
2022-11-18T15:20:46.404Z,95048.06
2022-11-18T15:23:14.744Z,95048.22
2022-11-18T15:25:43.101Z,95056.28
2022-11-18T15:28:12.163Z,95055.53
2022-11-18T15:30:42.000Z,95059.91
2022-11-18T15:33:10.350Z,95065.69
2022-11-18T15:35:38.717Z,95063.31
2022-11-18T15:38:08.495Z,95054.94
2022-11-18T15:40:36.958Z,95061.31
2022-11-18T15:43:05.483Z,95057.78
2022-11-18T15:45:33.831Z,95065.19
2022-11-18T15:48:02.263Z,95059.28
2022-11-18T15:50:30.651Z,95069.25
2022-11-18T15:52:59.030Z,95070.13
2022-11-18T15:55:28.731Z,95067.59
2022-11-18T15:57:57.069Z,95074.84
2022-11-18T16:00:25.354Z,95080.81
2022-11-18T16:02:53.672Z,95069.78
2022-11-18T16:05:22.028Z,95072.44
2022-11-18T16:07:54.828Z,95070.00
2022-11-18T16:10:41.058Z,95077.16
2022-11-18T16:13:10.768Z,95075.25
2022-11-18T16:15:47.948Z,95076.25
2022-11-18T16:18:19.656Z,95082.91
2022-11-18T16:20:48.024Z,95089.16
2022-11-18T16:23:16.352Z,95086.91
2022-11-18T16:25:46.226Z,95078.66
2022-11-18T16:28:15.976Z,95092.94
2022-11-18T16:31:07.076Z,95094.19
2022-11-18T16:33:35.415Z,95103.78
2022-11-18T16:36:04.060Z,95103.47
2022-11-18T16:38:32.352Z,95110.97
2022-11-18T16:41:01.222Z,95117.94
2022-11-18T16:43:30.894Z,95102.38
2022-11-18T16:45:59.181Z,95108.50
2022-11-18T16:48:27.477Z,95119.97
2022-11-18T16:51:07.781Z,95116.91
2022-11-18T16:53:36.093Z,95125.91
2022-11-18T16:56:04.604Z,95123.25
2022-11-18T16:58:34.348Z,95124.47
2022-11-18T17:01:18.963Z,95124.88
2022-11-18T17:03:51.655Z,95127.50
2022-11-18T17:06:19.802Z,95131.59
2022-11-18T17:08:48.098Z,95133.38
2022-11-18T17:11:17.017Z,95143.91
2022-11-18T17:13:47.237Z,95136.25
2022-11-18T17:16:16.873Z,95135.31
2022-11-18T17:18:45.631Z,95134.00
2022-11-18T17:21:17.478Z,95140.59
2022-11-18T17:23:46.624Z,95137.75
2022-11-18T17:26:16.622Z,95155.09
2022-11-18T17:28:46.964Z,95161.66
2022-11-18T17:31:17.144Z,95163.47
2022-11-18T17:33:45.830Z,95167.56
2022-11-18T17:36:15.454Z,95165.97
2022-11-18T17:38:45.010Z,95164.09
2022-11-18T17:41:30.129Z,95173.72
2022-11-18T17:44:00.137Z,95175.16
2022-11-18T17:46:33.431Z,95186.53
2022-11-18T17:49:06.220Z,95182.91
2022-11-18T17:51:34.681Z,95184.53
2022-11-18T17:54:03.091Z,95186.34
2022-11-18T17:56:31.412Z,95173.69
2022-11-18T17:59:01.421Z,95188.19
2022-11-18T18:01:29.834Z,95194.53
2022-11-18T18:03:58.260Z,95196.31
2022-11-18T18:06:27.002Z,95203.78
2022-11-18T18:08:58.370Z,95198.69
2022-11-18T18:11:27.459Z,95202.06
2022-11-18T18:14:13.518Z,95206.63
2022-11-18T18:16:45.265Z,95200.78
2022-11-18T18:19:15.697Z,95201.34
2022-11-18T18:21:44.164Z,95201.91
2022-11-18T18:24:14.833Z,95206.78
2022-11-18T18:26:43.217Z,95208.78
2022-11-18T18:29:12.869Z,95209.91
2022-11-18T18:31:41.341Z,95217.00
2022-11-18T18:34:11.139Z,95214.63
2022-11-18T18:36:39.681Z,95222.31
2022-11-18T18:39:07.996Z,95226.78
2022-11-18T18:41:37.780Z,95220.25
2022-11-18T18:44:06.253Z,95219.34
2022-11-18T18:46:33.604Z,95214.56
2022-11-18T18:49:07.248Z,95227.75
2022-11-18T18:51:39.527Z,95215.00
2022-11-18T18:54:08.834Z,95226.13
2022-11-18T18:56:38.488Z,95229.59
2022-11-18T18:59:07.319Z,95235.75
2022-11-18T19:01:35.934Z,95235.81
2022-11-18T19:04:06.224Z,95238.03
2022-11-18T19:09:26.189Z,95237.22
2022-11-18T19:12:12.387Z,95235.75
2022-11-18T19:14:41.018Z,95239.44
2022-11-18T19:17:12.161Z,95243.69
2022-11-18T19:19:59.066Z,95234.59
2022-11-18T19:22:29.779Z,95241.91
2022-11-18T19:25:00.438Z,95240.28
2022-11-18T19:27:29.218Z,95248.81
2022-11-18T19:29:57.495Z,95247.31
2022-11-18T19:32:25.853Z,95250.47
2022-11-18T19:34:54.183Z,95251.88
2022-11-18T19:37:22.473Z,95243.97
2022-11-18T19:39:50.788Z,95260.69
2022-11-18T19:42:20.476Z,95264.16
2022-11-18T19:44:48.903Z,95257.59
2022-11-18T19:47:17.282Z,95265.38
2022-11-18T19:49:45.582Z,95268.41
2022-11-18T19:52:13.962Z,95265.66
2022-11-18T19:54:42.571Z,95262.50
2022-11-18T19:57:11.033Z,95259.53
2022-11-18T19:59:40.803Z,95265.91
2022-11-18T20:02:11.345Z,95261.97
2022-11-18T20:04:39.884Z,95267.94
2022-11-18T20:07:08.338Z,95258.63
2022-11-18T20:09:36.681Z,95263.16
2022-11-18T20:12:05.488Z,95263.94
2022-11-18T20:14:33.839Z,95256.78
2022-11-18T20:17:03.542Z,95266.84
2022-11-18T20:19:31.955Z,95274.97
2022-11-18T20:22:00.245Z,95280.78
2022-11-18T20:24:28.541Z,95285.41
2022-11-18T20:26:56.833Z,95279.06
2022-11-18T20:29:25.267Z,95274.34
2022-11-18T20:31:53.680Z,95290.41
2022-11-18T20:34:23.344Z,95284.50
2022-11-18T20:36:53.308Z,95285.63
2022-11-18T20:39:21.992Z,95283.72
2022-11-18T20:42:07.145Z,95292.34
2022-11-18T20:44:35.489Z,95289.97
2022-11-18T20:47:03.810Z,95293.50
2022-11-18T20:49:33.562Z,95294.41
2022-11-18T20:52:02.411Z,95310.47
2022-11-18T20:54:30.755Z,95299.97
2022-11-18T20:56:59.097Z,95300.56
2022-11-18T20:59:27.414Z,95304.28
2022-11-18T21:01:55.718Z,95306.53
2022-11-18T21:04:24.135Z,95313.28
2022-11-18T21:06:58.861Z,95305.75
2022-11-18T21:09:31.519Z,95318.41
2022-11-18T21:12:00.104Z,95312.66
2022-11-18T21:14:27.602Z,95318.59
2022-11-18T21:16:58.118Z,95310.88
2022-11-18T21:19:27.612Z,95310.06
2022-11-18T21:21:56.942Z,95309.19
2022-11-18T21:24:29.069Z,95319.41
2022-11-18T21:26:58.279Z,95318.06
2022-11-18T21:29:27.840Z,95329.28
2022-11-18T21:31:57.836Z,95325.91
2022-11-18T21:34:26.297Z,95331.31
2022-11-18T21:36:55.394Z,95337.63
2022-11-18T21:39:27.280Z,95330.50
2022-11-18T21:41:57.236Z,95339.38
2022-11-18T21:44:28.127Z,95338.09
2022-11-18T21:46:57.164Z,95335.81
2022-11-18T21:49:25.547Z,95329.09
2022-11-18T21:51:53.865Z,95340.06
2022-11-18T21:54:22.240Z,95334.47
2022-11-18T21:56:53.771Z,95344.78
2022-11-18T21:59:23.775Z,95355.28
2022-11-18T22:01:53.873Z,95349.22
2022-11-18T22:04:40.074Z,95354.13
2022-11-18T22:07:08.592Z,95351.88
2022-11-18T22:09:37.209Z,95352.53
2022-11-18T22:12:08.088Z,95348.47
2022-11-18T22:14:36.841Z,95350.63
2022-11-18T22:17:05.748Z,95351.31
2022-11-18T22:19:34.263Z,95355.03
2022-11-18T22:22:02.675Z,95360.34
2022-11-18T22:24:31.111Z,95364.19
2022-11-18T22:26:59.493Z,95356.53
2022-11-18T22:29:29.134Z,95342.88
2022-11-18T22:31:57.579Z,95350.13
2022-11-18T22:34:26.518Z,95358.81
2022-11-18T22:36:54.756Z,95354.41
2022-11-18T22:39:23.197Z,95344.31
2022-11-18T22:42:09.239Z,95352.69
2022-11-18T22:44:39.048Z,95359.69
2022-11-18T22:47:07.425Z,95363.72
2022-11-18T22:49:35.761Z,95357.59
2022-11-18T22:52:04.119Z,95358.09
2022-11-18T22:54:40.471Z,95361.97
2022-11-18T22:57:09.149Z,95359.25
2022-11-18T22:59:38.931Z,95357.19
2022-11-18T23:02:07.291Z,95358.47
2022-11-18T23:04:35.642Z,95363.34
2022-11-18T23:07:04.275Z,95365.53
2022-11-18T23:09:32.686Z,95360.34
2022-11-18T23:12:18.631Z,95369.00
2022-11-18T23:14:48.299Z,95362.47
2022-11-18T23:17:16.779Z,95364.28
2022-11-18T23:19:46.927Z,95360.81
2022-11-18T23:22:15.471Z,95361.28
2022-11-18T23:24:43.994Z,95353.88
2022-11-18T23:27:12.460Z,95357.53
2022-11-18T23:29:40.804Z,95353.94
2022-11-18T23:32:10.580Z,95358.16
2022-11-18T23:34:38.945Z,95350.97
2022-11-18T23:37:08.702Z,95350.78
2022-11-18T23:39:37.350Z,95359.38
2022-11-18T23:42:06.150Z,95360.34
2022-11-18T23:44:46.690Z,95357.66
2022-11-18T23:47:16.446Z,95357.56
2022-11-18T23:49:44.776Z,95365.50
2022-11-18T23:52:14.932Z,95362.84
2022-11-18T23:54:43.262Z,95362.38
2022-11-18T23:57:11.666Z,95365.53
2022-11-18T23:59:39.982Z,95360.44
